Time;durP1;ratioP1;P1;durP2;ratioP2;P2;SDS_P1;SDS_P2;PMS_P1;PMS_P2;Temp;Humidity;BMP_temperature;BMP_pressure;BME280_temperature;BME280_humidity;BME280_pressure;Samples;Min_cycle;Max_cycle;Signal;HPM_P1;HPM_P2
2024/03/16 00:01:58;;;;;;;9.07;7.43;;;11.00;99.90;;;;;;4965244;28;20516;-66
2024/03/16 00:04:26;;;;;;;9.43;7.63;;;11.00;99.90;;;;;;4983047;28;21061;-66
2024/03/16 00:06:55;;;;;;;8.60;7.70;;;11.00;99.90;;;;;;4969453;28;20515;-67
2024/03/16 00:09:24;;;;;;;9.87;7.20;;;10.90;99.90;;;;;;4971634;28;20583;-66
2024/03/16 00:11:53;;;;;;;12.33;8.47;;;10.90;99.90;;;;;;4970820;28;20874;-66
2024/03/16 00:14:21;;;;;;;10.83;7.63;;;10.90;99.90;;;;;;4968612;28;21096;-66
2024/03/16 00:16:49;;;;;;;12.23;7.40;;;10.90;99.90;;;;;;4968360;28;20466;-66
2024/03/16 00:19:18;;;;;;;10.00;8.13;;;10.90;99.90;;;;;;4966465;28;20576;-66
2024/03/16 00:21:46;;;;;;;9.50;7.77;;;10.90;99.90;;;;;;4965523;28;20505;-66
2024/03/16 00:24:14;;;;;;;11.57;6.80;;;10.90;99.90;;;;;;4966719;28;20576;-67
2024/03/16 00:26:42;;;;;;;10.20;7.20;;;10.90;99.90;;;;;;4967882;28;20488;-67
2024/03/16 00:29:11;;;;;;;10.13;7.83;;;10.90;99.90;;;;;;4966769;28;21043;-67
2024/03/16 00:31:39;;;;;;;9.70;6.90;;;10.90;99.90;;;;;;4966002;28;20619;-67
2024/03/16 00:34:08;;;;;;;10.40;8.50;;;10.90;99.90;;;;;;4966441;28;20592;-67
2024/03/16 00:36:36;;;;;;;10.50;6.80;;;10.90;99.90;;;;;;4971096;28;20481;-67
2024/03/16 00:39:14;;;;;;;9.03;7.47;;;10.90;99.90;;;;;;4963940;28;21252;-67
2024/03/16 00:41:43;;;;;;;10.63;7.40;;;10.90;99.90;;;;;;4971306;28;20499;-67
2024/03/16 00:44:11;;;;;;;13.17;7.47;;;10.90;99.90;;;;;;4954088;28;20532;-67
2024/03/16 00:46:39;;;;;;;14.23;8.17;;;11.00;99.90;;;;;;4951720;28;20501;-66
2024/03/16 00:49:08;;;;;;;10.33;7.70;;;11.00;99.90;;;;;;4963623;28;20572;-67
2024/03/16 00:51:36;;;;;;;11.03;8.27;;;11.00;99.90;;;;;;4970073;28;20521;-66
2024/03/16 00:54:04;;;;;;;10.40;7.50;;;11.00;99.90;;;;;;4966018;28;20492;-67
2024/03/16 00:56:32;;;;;;;10.77;8.53;;;11.00;99.90;;;;;;4977884;28;20513;-66
2024/03/16 00:59:00;;;;;;;9.37;7.77;;;11.00;99.90;;;;;;4973403;28;20483;-68
2024/03/16 01:01:33;;;;;;;11.70;8.43;;;11.00;99.90;;;;;;4963359;28;20500;-66
2024/03/16 01:04:02;;;;;;;13.53;8.37;;;11.00;99.90;;;;;;4983557;28;20473;-67
2024/03/16 01:06:30;;;;;;;15.53;8.37;;;11.00;99.90;;;;;;4968500;28;20589;-67
2024/03/16 01:08:58;;;;;;;11.60;8.93;;;11.00;99.90;;;;;;4967192;28;20480;-67
2024/03/16 01:11:27;;;;;;;12.00;9.40;;;11.10;99.90;;;;;;4968848;28;20496;-67
2024/03/16 01:13:55;;;;;;;10.57;8.30;;;11.10;99.90;;;;;;4967877;28;21024;-66
2024/03/16 01:16:23;;;;;;;12.73;9.93;;;11.10;99.90;;;;;;4965979;28;20916;-67
2024/03/16 01:18:51;;;;;;;15.10;9.80;;;11.10;99.90;;;;;;4960061;28;20618;-67
2024/03/16 01:21:20;;;;;;;15.10;10.00;;;11.10;99.90;;;;;;4966691;28;20485;-67
2024/03/16 01:23:48;;;;;;;11.20;9.10;;;11.10;99.90;;;;;;4962753;28;20891;-66
2024/03/16 01:26:16;;;;;;;14.27;10.47;;;11.10;99.90;;;;;;4983851;28;20604;-67
2024/03/16 01:28:45;;;;;;;12.83;9.67;;;11.10;99.90;;;;;;4962972;28;20473;-67
2024/03/16 01:31:13;;;;;;;11.40;8.47;;;11.10;99.90;;;;;;4967557;28;21083;-67
2024/03/16 01:33:42;;;;;;;13.33;10.00;;;11.10;99.90;;;;;;4977051;28;20575;-67
2024/03/16 01:36:10;;;;;;;11.90;8.77;;;11.10;99.90;;;;;;4968595;28;20477;-66
2024/03/16 01:38:38;;;;;;;14.10;9.57;;;11.10;99.90;;;;;;4965891;28;20477;-66
2024/03/16 01:41:07;;;;;;;11.90;9.87;;;11.10;99.90;;;;;;4960653;28;20512;-66
2024/03/16 01:43:35;;;;;;;11.40;9.73;;;11.10;99.90;;;;;;4969899;28;20482;-66
2024/03/16 01:46:03;;;;;;;14.73;9.20;;;11.10;99.90;;;;;;4960769;28;21026;-66
2024/03/16 01:48:31;;;;;;;17.33;9.60;;;11.10;99.90;;;;;;4975088;28;20483;-66
2024/03/16 01:50:59;;;;;;;13.17;10.00;;;11.10;99.90;;;;;;4960140;28;20496;-67
2024/03/16 01:53:28;;;;;;;13.70;10.00;;;11.10;99.90;;;;;;4965035;28;20479;-66
2024/03/16 01:55:56;;;;;;;11.30;9.37;;;11.10;99.90;;;;;;4968004;28;20468;-67
2024/03/16 01:58:24;;;;;;;11.63;10.10;;;11.10;99.90;;;;;;4975779;28;20505;-67
2024/03/16 02:00:53;;;;;;;13.40;10.73;;;11.10;99.90;;;;;;4960514;28;20524;-67
2024/03/16 02:03:21;;;;;;;13.33;10.63;;;11.10;99.90;;;;;;4962658;28;20499;-65
2024/03/16 02:05:50;;;;;;;15.63;11.70;;;11.10;99.90;;;;;;4967573;28;20600;-67
2024/03/16 02:08:18;;;;;;;14.07;11.17;;;11.10;99.90;;;;;;4965445;28;20516;-67
2024/03/16 02:10:46;;;;;;;15.30;12.40;;;11.00;99.90;;;;;;4966144;28;20492;-68
2024/03/16 02:13:14;;;;;;;18.50;11.87;;;11.00;99.90;;;;;;4962813;28;22200;-67
2024/03/16 02:15:42;;;;;;;14.30;11.83;;;11.00;99.90;;;;;;4983125;28;20568;-67
2024/03/16 02:18:10;;;;;;;20.90;13.60;;;11.00;99.90;;;;;;4962816;28;20505;-68
2024/03/16 02:20:39;;;;;;;16.03;12.10;;;11.00;99.90;;;;;;4965896;28;21058;-67
2024/03/16 02:23:07;;;;;;;15.87;12.60;;;11.00;99.90;;;;;;4961240;28;20485;-68
2024/03/16 02:25:35;;;;;;;15.93;12.63;;;11.10;99.90;;;;;;4972950;28;20469;-67
2024/03/16 02:28:04;;;;;;;18.40;13.00;;;11.00;99.90;;;;;;4968270;28;20867;-67
2024/03/16 02:30:32;;;;;;;15.47;12.70;;;11.10;99.90;;;;;;4970701;28;20504;-67
2024/03/16 02:33:05;;;;;;;15.40;13.27;;;11.00;99.90;;;;;;4969340;28;20920;-67
2024/03/16 02:35:33;;;;;;;15.97;12.73;;;11.10;99.90;;;;;;4983326;28;20927;-67
2024/03/16 02:38:01;;;;;;;15.70;13.40;;;11.10;99.90;;;;;;4984628;28;21053;-67
2024/03/16 02:40:31;;;;;;;18.07;12.83;;;11.10;99.90;;;;;;4984104;28;21018;-68
2024/03/16 02:42:59;;;;;;;16.77;12.30;;;11.10;99.90;;;;;;4968895;28;20488;-67
2024/03/16 02:45:28;;;;;;;14.63;12.80;;;11.10;99.90;;;;;;4972306;28;20570;-67
2024/03/16 02:47:57;;;;;;;17.87;14.13;;;11.10;99.90;;;;;;4968305;28;20547;-65
2024/03/16 02:50:25;;;;;;;18.13;14.07;;;11.10;99.90;;;;;;4970115;28;20496;-65
2024/03/16 02:52:55;;;;;;;18.37;13.47;;;11.10;99.90;;;;;;4967636;28;20552;-65
2024/03/16 02:55:22;;;;;;;17.73;12.87;;;11.10;99.90;;;;;;4972988;28;20473;-65
2024/03/16 02:57:50;;;;;;;16.07;13.00;;;11.20;99.90;;;;;;4970058;28;20862;-65
2024/03/16 03:00:19;;;;;;;18.00;13.00;;;11.20;99.90;;;;;;4966805;28;20501;-65
2024/03/16 03:02:47;;;;;;;16.50;12.90;;;11.20;99.90;;;;;;4962483;28;20980;-67
2024/03/16 03:05:19;;;;;;;20.80;12.60;;;11.20;99.90;;;;;;4968022;28;20486;-65
2024/03/16 03:07:48;;;;;;;22.27;12.80;;;11.20;99.90;;;;;;4982032;28;20508;-65
2024/03/16 03:10:16;;;;;;;15.60;12.60;;;11.20;99.90;;;;;;4970243;28;20557;-65
2024/03/16 03:12:45;;;;;;;14.40;12.60;;;11.20;99.90;;;;;;4969663;28;20982;-65
2024/03/16 03:15:13;;;;;;;15.43;12.80;;;11.20;99.90;;;;;;4970459;28;20523;-65
2024/03/16 03:17:42;;;;;;;17.80;13.10;;;11.20;99.90;;;;;;4972995;28;20838;-66
2024/03/16 03:20:10;;;;;;;18.80;14.00;;;11.10;99.90;;;;;;4965876;28;20970;-65
2024/03/16 03:22:38;;;;;;;17.90;13.57;;;11.10;99.90;;;;;;4984585;28;20500;-65
2024/03/16 03:25:07;;;;;;;15.27;12.90;;;11.10;99.90;;;;;;5008406;28;20567;-66
2024/03/16 03:27:35;;;;;;;16.73;13.60;;;11.10;99.90;;;;;;5003387;28;20495;-66
2024/03/16 03:30:04;;;;;;;18.53;14.20;;;11.10;99.90;;;;;;4974772;28;20538;-65
2024/03/16 03:32:32;;;;;;;16.77;13.23;;;11.10;99.90;;;;;;4976439;28;20558;-65
2024/03/16 03:35:00;;;;;;;16.97;13.73;;;11.10;99.90;;;;;;4955172;28;20488;-65
2024/03/16 03:37:29;;;;;;;16.97;13.07;;;11.10;99.90;;;;;;4974864;28;20966;-65
2024/03/16 03:39:57;;;;;;;20.03;14.90;;;11.10;99.90;;;;;;4974701;28;20539;-65
2024/03/16 03:42:29;;;;;;;17.70;13.53;;;11.10;99.90;;;;;;4960088;28;20501;-66
2024/03/16 03:45:11;;;;;;;18.13;13.90;;;11.10;99.90;;;;;;4967395;28;20504;-65
2024/03/16 03:47:49;;;;;;;19.87;13.37;;;11.10;99.90;;;;;;4969424;28;20576;-65
2024/03/16 03:50:26;;;;;;;18.97;13.50;;;11.10;99.90;;;;;;4954510;28;24038;-65
2024/03/16 03:52:55;;;;;;;16.63;13.77;;;11.10;99.90;;;;;;4956695;28;20472;-65
2024/03/16 03:55:23;;;;;;;16.20;13.67;;;11.10;99.90;;;;;;4971856;28;20531;-65
2024/03/16 03:57:51;;;;;;;20.57;14.40;;;11.10;99.90;;;;;;4978244;28;20593;-65
2024/03/16 04:00:23;;;;;;;15.27;13.57;;;11.10;99.90;;;;;;4971644;28;20508;-65
2024/03/16 04:02:51;;;;;;;17.20;13.20;;;11.10;99.90;;;;;;4970413;28;20484;-65
2024/03/16 04:05:19;;;;;;;17.90;13.33;;;11.20;99.90;;;;;;4986090;28;20571;-65
2024/03/16 04:07:47;;;;;;;17.53;13.90;;;11.10;99.90;;;;;;4990755;28;20602;-65
2024/03/16 04:10:15;;;;;;;18.10;13.67;;;11.10;99.90;;;;;;4981963;28;20500;-65
2024/03/16 04:12:43;;;;;;;18.17;12.20;;;11.10;99.90;;;;;;4973578;28;20485;-65
2024/03/16 04:15:11;;;;;;;16.50;12.30;;;11.10;99.90;;;;;;4990743;28;20480;-65
2024/03/16 04:17:39;;;;;;;15.77;12.17;;;11.10;99.90;;;;;;4986677;28;20479;-65
2024/03/16 04:20:10;;;;;;;15.50;11.70;;;11.10;99.90;;;;;;4975447;28;20464;-65
2024/03/16 04:22:38;;;;;;;15.27;11.97;;;11.20;99.90;;;;;;4988713;28;20504;-65
2024/03/16 04:25:07;;;;;;;15.40;11.93;;;11.20;99.90;;;;;;4986333;28;21195;-65
2024/03/16 04:27:36;;;;;;;17.60;11.63;;;11.10;99.90;;;;;;5002658;28;20468;-65
2024/03/16 04:30:04;;;;;;;15.27;11.70;;;11.20;99.90;;;;;;4976463;28;20468;-65
2024/03/16 04:32:33;;;;;;;18.33;13.17;;;11.20;99.90;;;;;;4980062;28;21965;-65
2024/03/16 04:35:01;;;;;;;18.00;10.90;;;11.20;99.90;;;;;;4980152;28;20569;-65
2024/03/16 04:37:29;;;;;;;13.70;11.57;;;11.20;99.90;;;;;;4998293;28;20562;-65
2024/03/16 04:39:58;;;;;;;15.73;10.43;;;11.20;99.90;;;;;;4998064;28;20559;-65
2024/03/16 04:42:26;;;;;;;17.23;11.60;;;11.20;99.90;;;;;;4987873;28;20902;-66
2024/03/16 04:44:54;;;;;;;16.63;11.57;;;11.10;99.90;;;;;;5001242;28;21086;-65
2024/03/16 04:47:22;;;;;;;14.57;10.90;;;11.20;99.90;;;;;;4999445;28;22768;-65
2024/03/16 04:49:50;;;;;;;15.37;10.53;;;11.10;99.90;;;;;;5000837;28;20498;-66
2024/03/16 04:52:19;;;;;;;16.10;11.60;;;11.10;99.90;;;;;;4988564;28;20508;-65
2024/03/16 04:54:47;;;;;;;17.77;11.00;;;11.20;99.90;;;;;;4986629;28;21024;-65
2024/03/16 04:57:18;;;;;;;14.67;10.37;;;11.20;99.90;;;;;;5003299;28;20552;-65
2024/03/16 04:59:46;;;;;;;15.63;11.27;;;11.10;99.90;;;;;;4983271;28;20499;-65
2024/03/16 05:02:14;;;;;;;18.23;11.70;;;11.10;99.90;;;;;;4997040;28;20496;-65
2024/03/16 05:04:42;;;;;;;17.50;13.33;;;11.00;99.90;;;;;;4984294;28;20508;-65
2024/03/16 05:07:10;;;;;;;18.53;11.37;;;11.00;99.90;;;;;;4986807;28;20571;-65
2024/03/16 05:09:38;;;;;;;19.80;11.17;;;11.00;99.90;;;;;;4986299;28;21505;-65
2024/03/16 05:12:07;;;;;;;17.70;11.00;;;10.90;99.90;;;;;;4998896;28;20491;-65
2024/03/16 05:14:35;;;;;;;17.40;11.20;;;10.90;99.90;;;;;;5001917;28;20484;-65
2024/03/16 05:17:03;;;;;;;17.43;11.30;;;10.90;99.90;;;;;;4984813;28;20472;-65
2024/03/16 05:19:31;;;;;;;15.97;11.00;;;10.90;99.90;;;;;;5002285;28;20476;-65
2024/03/16 05:21:59;;;;;;;17.43;10.93;;;10.90;99.90;;;;;;5004629;28;20502;-65
2024/03/16 05:24:31;;;;;;;5.93;5.30;;;11.00;99.90;;;;;;4991411;28;20480;-65
2024/03/16 05:27:00;;;;;;;3.90;2.80;;;11.00;99.90;;;;;;4978097;28;20472;-65
2024/03/16 05:29:28;;;;;;;4.03;2.23;;;11.00;99.90;;;;;;4976829;28;20524;-65
2024/03/16 05:31:57;;;;;;;4.47;1.93;;;10.90;99.90;;;;;;4982779;28;20516;-65
2024/03/16 05:34:25;;;;;;;3.13;1.73;;;10.70;99.90;;;;;;4982540;28;20493;-65
2024/03/16 05:36:53;;;;;;;1.37;1.27;;;10.60;99.90;;;;;;4983685;28;20472;-66
2024/03/16 05:39:22;;;;;;;1.50;1.40;;;10.50;99.90;;;;;;4982717;28;20499;-66
2024/03/16 05:41:50;;;;;;;1.97;1.40;;;10.40;99.90;;;;;;5003256;28;20492;-66
2024/03/16 05:44:18;;;;;;;1.87;1.40;;;10.40;99.90;;;;;;4980484;28;20938;-66
2024/03/16 05:46:46;;;;;;;1.53;1.43;;;10.20;99.90;;;;;;4982188;28;20575;-66
2024/03/16 05:49:14;;;;;;;1.80;1.70;;;10.10;99.90;;;;;;4982172;28;20566;-68
2024/03/16 05:51:43;;;;;;;1.40;1.30;;;10.10;99.90;;;;;;4985476;28;20495;-68
2024/03/16 05:54:11;;;;;;;1.80;1.37;;;10.00;99.90;;;;;;4985340;28;20487;-68
2024/03/16 05:56:39;;;;;;;4.33;1.80;;;10.00;99.90;;;;;;4987763;28;20567;-65
2024/03/16 05:59:08;;;;;;;2.60;1.73;;;9.90;99.90;;;;;;4984339;28;20472;-66
2024/03/16 06:01:37;;;;;;;2.97;2.00;;;9.80;99.90;;;;;;4982949;28;20566;-66
2024/03/16 06:04:06;;;;;;;1.80;1.70;;;9.80;99.90;;;;;;4973254;28;21258;-66
2024/03/16 06:06:34;;;;;;;2.00;1.90;;;9.80;99.90;;;;;;4965456;28;20982;-66
2024/03/16 06:09:02;;;;;;;2.40;2.20;;;9.70;99.90;;;;;;4966915;28;20563;-66
2024/03/16 06:11:35;;;;;;;2.77;2.10;;;9.70;99.90;;;;;;4995371;28;20918;-65
2024/03/16 06:14:04;;;;;;;3.10;2.40;;;9.70;99.90;;;;;;4998402;28;20517;-65
2024/03/16 06:16:32;;;;;;;3.37;2.77;;;9.70;99.90;;;;;;4977584;28;20530;-66
2024/03/16 06:19:00;;;;;;;5.00;4.27;;;9.80;99.90;;;;;;4982681;28;20544;-66
2024/03/16 06:21:29;;;;;;;5.10;3.50;;;9.70;99.90;;;;;;4980566;28;21085;-65
2024/03/16 06:23:57;;;;;;;4.70;3.27;;;9.70;99.90;;;;;;4979204;28;21013;-66
2024/03/16 06:26:28;;;;;;;5.47;3.83;;;9.70;99.90;;;;;;4981562;28;20904;-65
2024/03/16 06:29:04;;;;;;;3.80;3.40;;;9.70;99.90;;;;;;4994420;28;20882;-66
2024/03/16 06:31:35;;;;;;;4.00;3.20;;;9.60;99.90;;;;;;4999620;28;20538;-65
2024/03/16 06:34:04;;;;;;;5.30;4.00;;;9.60;99.90;;;;;;4993027;28;20488;-65
2024/03/16 06:36:33;;;;;;;5.20;3.20;;;9.50;99.90;;;;;;5000502;28;20484;-65
2024/03/16 06:39:06;;;;;;;4.50;3.50;;;9.50;99.90;;;;;;4979292;28;20473;-65
2024/03/16 06:41:34;;;;;;;4.03;3.20;;;9.40;99.90;;;;;;4993014;28;20573;-65
2024/03/16 06:44:03;;;;;;;4.63;2.80;;;9.40;99.90;;;;;;4967489;28;21023;-65
2024/03/16 06:46:32;;;;;;;3.23;2.90;;;9.40;99.90;;;;;;4963534;28;20504;-66
2024/03/16 06:49:05;;;;;;;3.80;2.70;;;9.30;99.90;;;;;;4965184;28;20495;-66
2024/03/16 06:51:34;;;;;;;6.63;3.00;;;9.30;99.90;;;;;;4965023;28;20489;-66
2024/03/16 06:54:03;;;;;;;7.43;3.23;;;9.30;99.90;;;;;;4965165;28;20487;-65
2024/03/16 06:56:31;;;;;;;3.77;3.20;;;9.20;99.90;;;;;;4967764;28;20473;-66
2024/03/16 06:59:00;;;;;;;4.67;3.23;;;9.20;99.90;;;;;;4979349;28;20560;-65
2024/03/16 07:01:28;;;;;;;5.13;3.27;;;9.10;99.90;;;;;;4960970;28;20499;-66
2024/03/16 07:03:57;;;;;;;5.90;3.50;;;9.10;99.90;;;;;;4957801;28;20488;-66
2024/03/16 07:06:25;;;;;;;4.33;3.40;;;9.00;99.90;;;;;;4964906;28;20485;-65
2024/03/16 07:08:53;;;;;;;5.43;3.50;;;9.00;99.90;;;;;;4967498;28;20505;-65
2024/03/16 07:11:21;;;;;;;7.60;3.77;;;8.90;99.90;;;;;;4986800;28;20524;-66
2024/03/16 07:13:49;;;;;;;9.20;3.43;;;8.90;99.90;;;;;;4967501;28;20563;-66
2024/03/16 07:16:17;;;;;;;7.33;4.30;;;8.80;99.90;;;;;;4965051;28;20477;-65
2024/03/16 07:18:45;;;;;;;7.90;4.23;;;8.80;99.90;;;;;;4968350;28;20947;-66
2024/03/16 07:21:15;;;;;;;10.73;4.57;;;8.80;99.90;;;;;;4966519;28;20472;-65
2024/03/16 07:23:43;;;;;;;4.90;3.97;;;8.80;99.90;;;;;;4980348;28;20495;-65
2024/03/16 07:26:12;;;;;;;6.77;3.80;;;8.70;99.90;;;;;;4964648;28;20484;-66
2024/03/16 07:28:40;;;;;;;4.47;3.80;;;8.70;99.90;;;;;;4965900;28;21152;-65
2024/03/16 07:31:08;;;;;;;6.60;3.07;;;8.60;99.90;;;;;;4965568;28;20484;-65
2024/03/16 07:33:36;;;;;;;6.63;2.67;;;8.60;99.90;;;;;;4967998;28;20484;-65
2024/03/16 07:36:05;;;;;;;8.80;2.77;;;8.60;99.90;;;;;;4965475;28;20469;-65
2024/03/16 07:38:33;;;;;;;6.30;2.90;;;8.50;99.90;;;;;;4965346;28;20973;-65
2024/03/16 07:41:03;;;;;;;4.77;2.10;;;8.50;99.90;;;;;;4961838;28;21591;-66
2024/03/16 07:43:32;;;;;;;4.60;2.53;;;8.50;99.90;;;;;;4979900;28;20900;-65
2024/03/16 07:46:00;;;;;;;7.37;3.53;;;8.50;99.90;;;;;;4980341;28;20569;-65
2024/03/16 07:48:29;;;;;;;5.47;3.00;;;8.40;99.90;;;;;;4959623;28;20477;-65
2024/03/16 07:51:00;;;;;;;7.33;2.20;;;8.50;99.90;;;;;;4982576;28;21830;-65
2024/03/16 07:53:31;;;;;;;8.67;2.67;;;8.40;99.90;;;;;;4970566;28;20484;-65
2024/03/16 07:55:59;;;;;;;5.70;1.90;;;8.40;99.90;;;;;;4971418;28;20845;-65
2024/03/16 07:58:27;;;;;;;6.33;2.50;;;8.40;99.90;;;;;;4969665;28;20575;-65
2024/03/16 08:00:55;;;;;;;8.13;2.07;;;8.40;99.90;;;;;;4967916;28;20990;-65
2024/03/16 08:03:25;;;;;;;4.07;1.67;;;8.30;99.90;;;;;;4966929;28;20540;-65
2024/03/16 08:05:53;;;;;;;7.87;1.83;;;8.30;99.90;;;;;;4967705;28;20632;-65
2024/03/16 08:08:22;;;;;;;3.33;1.60;;;8.30;99.90;;;;;;4970584;28;20483;-66
2024/03/16 08:10:53;;;;;;;7.57;2.30;;;8.20;99.90;;;;;;4958061;28;20588;-65
2024/03/16 08:13:22;;;;;;;6.67;2.33;;;8.20;99.90;;;;;;4961321;28;20497;-66
2024/03/16 08:15:50;;;;;;;9.73;1.80;;;8.20;99.90;;;;;;4969166;28;20504;-66
2024/03/16 08:18:18;;;;;;;5.07;1.50;;;8.20;99.90;;;;;;4967677;28;20476;-65
2024/03/16 08:20:46;;;;;;;3.83;2.60;;;8.10;99.90;;;;;;4968547;28;20489;-65
2024/03/16 08:23:14;;;;;;;4.23;1.53;;;8.10;99.90;;;;;;4987997;28;20481;-65
2024/03/16 08:25:43;;;;;;;3.43;1.63;;;8.10;99.90;;;;;;4967141;28;20480;-66
2024/03/16 08:28:11;;;;;;;3.83;2.07;;;8.10;99.90;;;;;;4967850;28;21041;-65
2024/03/16 08:30:39;;;;;;;3.33;1.43;;;8.10;99.90;;;;;;4968115;28;20497;-65
2024/03/16 08:33:07;;;;;;;3.43;1.60;;;8.10;99.90;;;;;;4964351;28;20837;-65
2024/03/16 08:35:36;;;;;;;5.53;2.20;;;8.10;99.90;;;;;;4979844;28;20850;-65
2024/03/16 08:38:04;;;;;;;5.27;1.40;;;8.10;99.90;;;;;;4956038;28;20509;-65
2024/03/16 08:40:32;;;;;;;4.20;1.60;;;8.10;99.90;;;;;;4963108;28;21365;-65
2024/03/16 08:43:01;;;;;;;5.50;1.80;;;8.00;99.90;;;;;;4960205;28;20477;-65
2024/03/16 08:45:30;;;;;;;3.10;1.40;;;8.00;99.90;;;;;;4969917;28;20477;-65
2024/03/16 08:47:59;;;;;;;4.30;1.60;;;8.00;99.90;;;;;;4967956;28;20518;-65
2024/03/16 08:50:27;;;;;;;3.17;1.73;;;8.00;99.90;;;;;;4966293;28;20504;-66
2024/03/16 08:52:55;;;;;;;6.23;2.17;;;8.00;99.90;;;;;;4964029;28;20501;-65
2024/03/16 08:55:24;;;;;;;5.50;1.63;;;8.10;99.90;;;;;;4966929;28;20468;-66
2024/03/16 08:57:52;;;;;;;3.97;1.57;;;8.10;99.90;;;;;;4968119;28;20505;-66
2024/03/16 09:00:21;;;;;;;4.83;1.83;;;8.10;99.90;;;;;;4965922;28;20578;-66
2024/03/16 09:02:51;;;;;;;5.07;1.83;;;8.10;99.90;;;;;;4983243;28;20476;-66
2024/03/16 09:05:21;;;;;;;3.10;1.60;;;8.20;99.90;;;;;;4985914;28;20548;-66
2024/03/16 09:07:49;;;;;;;4.23;1.50;;;8.20;99.90;;;;;;4968145;28;20468;-66
2024/03/16 09:10:17;;;;;;;4.30;1.80;;;8.20;99.90;;;;;;4967697;28;20568;-66
2024/03/16 09:12:46;;;;;;;3.63;2.80;;;8.20;99.90;;;;;;4968672;28;20469;-66
2024/03/16 09:15:15;;;;;;;4.87;1.60;;;8.20;99.90;;;;;;4964890;28;20892;-66
2024/03/16 09:17:43;;;;;;;2.57;1.60;;;8.20;99.90;;;;;;4956801;28;20477;-66
2024/03/16 09:20:11;;;;;;;3.63;1.67;;;8.20;99.90;;;;;;4960618;28;20850;-66
2024/03/16 09:22:39;;;;;;;4.80;1.87;;;8.20;99.90;;;;;;4961854;28;20469;-67
2024/03/16 09:25:08;;;;;;;3.90;1.83;;;8.30;99.90;;;;;;4959548;28;20927;-68
2024/03/16 09:27:37;;;;;;;4.70;2.17;;;8.30;99.90;;;;;;4962162;28;20516;-68
2024/03/16 09:30:08;;;;;;;3.70;2.20;;;8.40;99.90;;;;;;4957998;28;20473;-68
2024/03/16 09:32:36;;;;;;;2.90;1.80;;;8.50;99.90;;;;;;4966482;28;20469;-67
2024/03/16 09:35:06;;;;;;;3.20;1.40;;;8.60;99.90;;;;;;4966209;28;20477;-68
2024/03/16 09:37:34;;;;;;;4.43;1.40;;;8.70;99.90;;;;;;4979099;28;21010;-67
2024/03/16 09:40:05;;;;;;;3.60;1.47;;;8.80;99.90;;;;;;4977519;28;20473;-67
2024/03/16 09:42:33;;;;;;;3.60;1.47;;;8.80;99.90;;;;;;4966562;28;20468;-67
2024/03/16 09:45:06;;;;;;;4.20;1.63;;;8.90;99.90;;;;;;4980457;28;20473;-66
2024/03/16 09:47:33;;;;;;;4.73;1.40;;;8.80;99.90;;;;;;4963119;28;20560;-67
2024/03/16 09:50:05;;;;;;;3.03;1.37;;;8.80;99.90;;;;;;4965562;28;20477;-67
2024/03/16 09:52:32;;;;;;;5.27;3.47;;;8.70;99.90;;;;;;4946131;28;20499;-68
2024/03/16 09:54:59;;;;;;;4.37;1.70;;;8.70;99.90;;;;;;4974588;28;20758;-67
2024/03/16 09:57:29;;;;;;;3.20;1.43;;;8.70;99.90;;;;;;4936598;28;20511;-67
2024/03/16 09:59:56;;;;;;;4.03;1.70;;;8.70;99.90;;;;;;4941687;28;20474;-70
2024/03/16 10:02:24;;;;;;;3.27;1.10;;;8.70;99.90;;;;;;4950502;28;20469;-67
2024/03/16 10:04:51;;;;;;;5.30;1.43;;;8.80;99.90;;;;;;4957434;28;20563;-67
2024/03/16 10:07:18;;;;;;;5.67;1.50;;;8.80;99.90;;;;;;4945822;28;20473;-66
2024/03/16 10:09:52;;;;;;;3.57;1.70;;;8.90;99.90;;;;;;4954973;28;20493;-67
2024/03/16 10:12:20;;;;;;;4.53;1.50;;;8.90;99.90;;;;;;4961743;28;20508;-69
2024/03/16 10:15:02;;;;;;;6.40;1.70;;;9.00;99.90;;;;;;4976763;28;20491;-70
2024/03/16 10:17:36;;;;;;;6.17;1.63;;;9.20;99.90;;;;;;4971512;28;20469;-68
2024/03/16 10:20:07;;;;;;;4.60;1.90;;;9.30;99.90;;;;;;4948111;28;20575;-66
2024/03/16 10:22:35;;;;;;;6.90;1.50;;;9.30;99.90;;;;;;4942867;28;20469;-66
2024/03/16 10:25:09;;;;;;;6.27;2.00;;;9.20;99.90;;;;;;4939068;28;20486;-66
2024/03/16 10:27:38;;;;;;;4.97;1.20;;;9.20;99.90;;;;;;4946431;28;20488;-66
2024/03/16 10:30:08;;;;;;;3.80;1.60;;;9.10;99.90;;;;;;4960708;28;20477;-67
2024/03/16 10:32:37;;;;;;;3.93;1.30;;;9.10;99.90;;;;;;4960531;28;20489;-66
2024/03/16 10:35:07;;;;;;;5.63;1.50;;;9.10;99.90;;;;;;4945822;28;20501;-66
2024/03/16 10:37:35;;;;;;;4.30;1.73;;;9.10;99.90;;;;;;4956759;28;20484;-66
2024/03/16 10:40:13;;;;;;;4.50;2.17;;;9.20;99.90;;;;;;4942773;28;20836;-67
2024/03/16 10:42:44;;;;;;;4.73;1.63;;;9.20;99.90;;;;;;4960658;28;20477;-67
2024/03/16 10:45:13;;;;;;;3.00;1.97;;;9.20;99.90;;;;;;4942977;28;20485;-66
2024/03/16 10:47:43;;;;;;;3.20;1.50;;;9.30;99.90;;;;;;4942497;28;20500;-65
2024/03/16 10:50:10;;;;;;;4.30;1.37;;;9.30;99.90;;;;;;4959070;28;21165;-67
2024/03/16 10:52:40;;;;;;;5.00;1.63;;;9.40;99.90;;;;;;4961506;28;20493;-66
2024/03/16 10:55:09;;;;;;;8.23;2.27;;;9.50;99.90;;;;;;4980942;28;20480;-68
2024/03/16 10:57:37;;;;;;;5.20;2.00;;;9.70;99.90;;;;;;4965151;28;21019;-67
2024/03/16 11:00:13;;;;;;;6.60;1.97;;;9.80;99.90;;;;;;4982437;28;21180;-67
2024/03/16 11:02:59;;;;;;;3.67;1.77;;;9.90;99.90;;;;;;4975360;28;20470;-66
2024/03/16 11:05:39;;;;;;;6.57;1.50;;;10.00;99.90;;;;;;4978686;28;22263;-68
2024/03/16 11:08:21;;;;;;;6.00;1.83;;;10.10;99.90;;;;;;4969538;28;20480;-68
2024/03/16 11:10:49;;;;;;;2.70;1.97;;;10.20;99.90;;;;;;4982245;28;21194;-68
2024/03/16 11:13:16;;;;;;;4.43;1.50;;;10.40;99.90;;;;;;4981681;28;20491;-69
2024/03/16 11:15:44;;;;;;;3.17;1.50;;;10.40;99.90;;;;;;4968157;28;20471;-69
2024/03/16 11:18:41;;;;;;;5.77;1.63;;;10.40;99.90;;;;;;4965748;28;20467;-68
2024/03/16 11:21:14;;;;;;;4.23;2.07;;;10.30;99.90;;;;;;4981259;28;20562;-68
2024/03/16 11:23:41;;;;;;;6.53;1.60;;;10.30;99.90;;;;;;4980267;28;20484;-69
2024/03/16 11:26:34;;;;;;;5.47;1.70;;;10.30;99.90;;;;;;4969187;28;20473;-68
2024/03/16 11:29:14;;;;;;;7.37;1.80;;;10.30;99.90;;;;;;4985752;28;20491;-68
2024/03/16 11:31:40;;;;;;;3.67;1.13;;;10.30;99.90;;;;;;4984775;28;20908;-68
2024/03/16 11:34:11;;;;;;;3.30;1.60;;;10.30;99.90;;;;;;4965304;28;21035;-68
2024/03/16 11:36:41;;;;;;;6.13;2.00;;;10.30;99.90;;;;;;4971142;28;20874;-67
2024/03/16 11:39:16;;;;;;;5.20;1.40;;;10.20;99.90;;;;;;4967432;28;20844;-67
2024/03/16 11:41:43;;;;;;;7.47;2.07;;;10.30;99.90;;;;;;4967140;28;20480;-67
2024/03/16 11:44:13;;;;;;;9.17;2.37;;;10.40;99.90;;;;;;4987612;28;20496;-67
2024/03/16 11:46:44;;;;;;;7.73;2.20;;;10.60;99.90;;;;;;4963896;28;20476;-67
2024/03/16 11:49:11;;;;;;;9.63;2.37;;;10.80;99.90;;;;;;4951781;28;21337;-67
2024/03/16 11:51:38;;;;;;;7.77;1.90;;;10.90;99.90;;;;;;4974027;28;20885;-67
2024/03/16 11:54:08;;;;;;;6.80;1.97;;;10.90;99.90;;;;;;4975413;28;20488;-67
2024/03/16 11:56:34;;;;;;;5.23;1.77;;;10.90;99.90;;;;;;4974697;28;20468;-67
2024/03/16 11:59:04;;;;;;;4.87;2.00;;;11.00;99.90;;;;;;4961736;28;20472;-67
2024/03/16 12:01:33;;;;;;;7.77;2.10;;;11.20;99.90;;;;;;4966626;28;20494;-67
2024/03/16 12:04:01;;;;;;;10.40;2.23;;;11.20;99.90;;;;;;4951997;28;20493;-67
2024/03/16 12:06:27;;;;;;;5.70;2.17;;;11.30;99.90;;;;;;4975783;28;20603;-67
2024/03/16 12:08:54;;;;;;;5.00;1.70;;;11.30;99.90;;;;;;4958912;28;20483;-66
2024/03/16 12:11:20;;;;;;;6.07;1.90;;;11.30;99.90;;;;;;4963618;28;20496;-66
2024/03/16 12:13:48;;;;;;;10.10;2.40;;;11.40;99.90;;;;;;4993504;28;20864;-66
2024/03/16 12:16:14;;;;;;;5.83;1.90;;;11.50;99.90;;;;;;4961977;28;20538;-66
2024/03/16 12:18:43;;;;;;;10.27;1.73;;;11.60;99.90;;;;;;4962063;28;20823;-67
2024/03/16 12:21:09;;;;;;;6.03;1.60;;;11.70;99.90;;;;;;4980093;28;20554;-66
2024/03/16 12:23:40;;;;;;;8.47;2.10;;;11.70;99.90;;;;;;4969216;28;20489;-66
2024/03/16 12:26:09;;;;;;;6.00;2.10;;;11.60;99.90;;;;;;4972919;28;21065;-66
2024/03/16 12:28:37;;;;;;;9.13;2.27;;;11.50;99.90;;;;;;4987489;28;20531;-66
2024/03/16 12:31:04;;;;;;;3.97;1.70;;;11.40;99.90;;;;;;4965565;28;21118;-66
2024/03/16 12:33:31;;;;;;;7.17;2.37;;;11.40;99.90;;;;;;4967364;28;20867;-66
2024/03/16 12:35:57;;;;;;;9.07;2.23;;;11.50;99.90;;;;;;4986846;28;20481;-66
2024/03/16 12:38:24;;;;;;;6.73;2.10;;;11.80;99.90;;;;;;4968955;28;20475;-66
2024/03/16 12:40:50;;;;;;;6.90;1.80;;;11.90;99.90;;;;;;4966032;28;20534;-67
2024/03/16 12:43:19;;;;;;;8.33;2.43;;;11.80;99.90;;;;;;4961692;28;20487;-66
2024/03/16 12:45:45;;;;;;;6.10;2.00;;;11.80;99.90;;;;;;4986605;28;20472;-66
2024/03/16 12:48:12;;;;;;;6.13;2.00;;;12.10;99.90;;;;;;4981828;28;20468;-66
2024/03/16 12:50:38;;;;;;;6.77;2.00;;;12.50;99.90;;;;;;4969495;28;21092;-66
2024/03/16 12:53:07;;;;;;;7.67;2.27;;;14.00;99.90;;;;;;4986645;28;20464;-66